createdAt,value
2023-01-29T00:00:10.599Z,99532.06
2023-01-29T00:01:12.333Z,99521.94
2023-01-29T00:02:13.938Z,99526.88
2023-01-29T00:03:16.530Z,99532.56
2023-01-29T00:04:18.946Z,99534.38
2023-01-29T00:05:27.836Z,99532.06
2023-01-29T00:06:30.028Z,99529.16
2023-01-29T00:07:33.929Z,99530.69
2023-01-29T00:08:39.090Z,99533.56
2023-01-29T00:09:41.614Z,99532.84
2023-01-29T00:10:43.725Z,99524.81
2023-01-29T00:11:46.389Z,99540.59
2023-01-29T00:12:56.714Z,99529.94
2023-01-29T00:13:58.936Z,99528.22
2023-01-29T00:15:00.369Z,99522.47
2023-01-29T00:16:05.271Z,99529.66
2023-01-29T00:17:06.985Z,99532.50
2023-01-29T00:18:09.153Z,99532.75
2023-01-29T00:19:11.469Z,99531.50
2023-01-29T00:20:13.289Z,99538.00
2023-01-29T00:21:22.799Z,99527.91
2023-01-29T00:22:24.449Z,99513.94
2023-01-29T00:23:28.099Z,99531.25
2023-01-29T00:24:33.628Z,99528.91
2023-01-29T00:25:35.185Z,99519.34
2023-01-29T00:26:39.282Z,99519.94
2023-01-29T00:27:44.978Z,99521.00
2023-01-29T00:28:47.056Z,99518.63
2023-01-29T00:30:08.804Z,99517.38
2023-01-29T00:31:19.182Z,99521.22
2023-01-29T00:32:21.987Z,99512.84
2023-01-29T00:33:23.538Z,99512.56
2023-01-29T00:34:25.862Z,99517.22
2023-01-29T00:35:28.399Z,99511.22
2023-01-29T00:36:31.072Z,99515.38
2023-01-29T00:37:33.561Z,99511.50
2023-01-29T00:38:36.825Z,99502.47
2023-01-29T00:39:47.882Z,99502.75
2023-01-29T00:41:12.251Z,99503.28
2023-01-29T00:42:32.649Z,99500.44
2023-01-29T00:43:53.770Z,99505.66
2023-01-29T00:44:58.032Z,99500.97
2023-01-29T00:46:02.961Z,99498.44
2023-01-29T00:47:25.484Z,99498.44
2023-01-29T00:48:27.348Z,99501.72
2023-01-29T00:49:31.493Z,99509.63
2023-01-29T00:50:35.596Z,99510.66
2023-01-29T00:51:40.830Z,99508.81
2023-01-29T00:52:45.656Z,99503.06
2023-01-29T00:53:49.324Z,99500.72
2023-01-29T00:54:59.566Z,99497.91
2023-01-29T00:56:06.926Z,99502.56
2023-01-29T00:57:08.437Z,99505.19
2023-01-29T00:58:33.979Z,99508.59
2023-01-29T00:59:35.943Z,99509.13
2023-01-29T01:00:37.710Z,99505.19
2023-01-29T01:01:57.956Z,99502.28
2023-01-29T01:03:05.539Z,99506.38
2023-01-29T01:04:08.434Z,99500.97
2023-01-29T01:05:18.077Z,99505.13
2023-01-29T01:06:19.966Z,99502.53
2023-01-29T01:07:21.965Z,99508.19
2023-01-29T01:08:43.948Z,99502.47
2023-01-29T01:10:04.388Z,99507.41
2023-01-29T01:11:06.954Z,99508.97
2023-01-29T01:12:08.458Z,99508.47
2023-01-29T01:13:10.563Z,99513.41
2023-01-29T01:14:12.356Z,99505.13
2023-01-29T01:15:16.704Z,99509.25
2023-01-29T01:16:19.162Z,99511.84
2023-01-29T01:17:21.013Z,99504.59
2023-01-29T01:18:22.930Z,99499.94
2023-01-29T01:19:25.699Z,99504.69
2023-01-29T01:20:29.598Z,99498.94
2023-01-29T01:21:31.338Z,99503.91
2023-01-29T01:22:32.925Z,99499.50
2023-01-29T01:23:35.070Z,99502.09
2023-01-29T01:24:37.229Z,99500.03
2023-01-29T01:25:38.745Z,99498.47
2023-01-29T01:26:42.938Z,99499.72
2023-01-29T01:27:47.932Z,99505.88
2023-01-29T01:28:49.926Z,99502.56
2023-01-29T01:29:52.598Z,99500.16
2023-01-29T01:30:54.267Z,99500.63
2023-01-29T01:31:56.142Z,99501.16
2023-01-29T01:32:58.972Z,99497.31
2023-01-29T01:34:04.125Z,99499.94
2023-01-29T01:35:15.256Z,99510.53
2023-01-29T01:36:21.515Z,99511.50
2023-01-29T01:37:29.092Z,99510.78
2023-01-29T01:38:33.873Z,99512.63
2023-01-29T01:39:37.241Z,99520.91
2023-01-29T01:40:45.495Z,99509.22
2023-01-29T01:41:49.400Z,99518.78
2023-01-29T01:43:01.085Z,99519.38
2023-01-29T01:44:08.905Z,99507.44
2023-01-29T01:45:46.881Z,99518.63
2023-01-29T01:46:48.416Z,99507.75
2023-01-29T01:47:56.566Z,99502.56
2023-01-29T01:49:16.500Z,99504.09
2023-01-29T01:50:26.922Z,99502.75
2023-01-29T01:51:33.305Z,99496.97
2023-01-29T01:52:40.958Z,99505.56
2023-01-29T01:53:54.414Z,99508.19
2023-01-29T01:54:56.385Z,99513.31
2023-01-29T01:56:24.930Z,99507.91
2023-01-29T01:57:29.958Z,99501.19
2023-01-29T01:58:36.409Z,99504.00
2023-01-29T01:59:40.600Z,99500.88
2023-01-29T02:00:42.723Z,99505.56
2023-01-29T02:01:51.448Z,99508.97
2023-01-29T02:03:13.320Z,99504.69
2023-01-29T02:04:36.979Z,99507.69
2023-01-29T02:05:58.680Z,99501.16
2023-01-29T02:07:22.034Z,99508.44
2023-01-29T02:09:04.918Z,99504.28
2023-01-29T02:10:12.261Z,99500.38
2023-01-29T02:11:13.850Z,99506.84
2023-01-29T02:12:17.210Z,99497.00
2023-01-29T02:13:19.578Z,99504.53
2023-01-29T02:14:21.217Z,99494.94
2023-01-29T02:15:22.672Z,99499.03
2023-01-29T02:16:24.206Z,99501.09
2023-01-29T02:17:25.966Z,99499.56
2023-01-29T02:18:27.456Z,99502.41
2023-01-29T02:19:57.725Z,99504.47
2023-01-29T02:21:25.215Z,99500.84
2023-01-29T02:22:55.276Z,99500.88
2023-01-29T02:24:04.919Z,99497.31
2023-01-29T02:25:22.236Z,99496.22
2023-01-29T02:26:45.240Z,99502.75
2023-01-29T02:27:49.536Z,99500.41
2023-01-29T02:29:30.575Z,99499.13
2023-01-29T02:30:41.448Z,99488.41
2023-01-29T02:31:48.468Z,99477.56
2023-01-29T02:33:00.122Z,99486.09
2023-01-29T02:34:01.668Z,99483.53
2023-01-29T02:35:33.150Z,99484.84
2023-01-29T02:37:13.431Z,99481.91
2023-01-29T02:38:22.069Z,99484.06
2023-01-29T02:39:50.289Z,99486.38
2023-01-29T02:41:01.199Z,99480.75
2023-01-29T02:42:11.818Z,99481.09
2023-01-29T02:43:23.557Z,99484.81
2023-01-29T02:44:44.453Z,99489.75
2023-01-29T02:46:21.137Z,99481.75
2023-01-29T02:47:42.041Z,99481.91
2023-01-29T02:48:54.031Z,99481.88
2023-01-29T02:50:31.673Z,99485.78
2023-01-29T02:51:40.804Z,99478.56
2023-01-29T02:52:54.236Z,99481.19
2023-01-29T02:54:04.397Z,99486.88
2023-01-29T02:55:17.595Z,99481.41
2023-01-29T02:56:28.035Z,99479.06
2023-01-29T02:57:35.219Z,99483.47
2023-01-29T02:58:43.286Z,99479.44
2023-01-29T03:00:04.076Z,99483.25
2023-01-29T03:01:18.355Z,99484.50
2023-01-29T03:02:28.929Z,99482.13
2023-01-29T03:03:42.372Z,99484.75
2023-01-29T03:04:49.511Z,99487.34
2023-01-29T03:05:59.253Z,99492.56
2023-01-29T03:07:10.606Z,99489.19
2023-01-29T03:08:18.926Z,99489.16
2023-01-29T03:09:31.027Z,99486.91
2023-01-29T03:10:40.374Z,99491.06
2023-01-29T03:11:48.733Z,99487.03
2023-01-29T03:13:03.041Z,99492.19
2023-01-29T03:14:10.463Z,99498.63
2023-01-29T03:15:19.406Z,99498.09
2023-01-29T03:16:28.140Z,99489.84
2023-01-29T03:17:37.342Z,99498.13
2023-01-29T03:18:46.269Z,99503.03
2023-01-29T03:19:49.200Z,99500.66
2023-01-29T03:20:58.549Z,99498.97
2023-01-29T03:22:04.609Z,99499.72
2023-01-29T03:23:14.333Z,99498.09
2023-01-29T03:24:43.931Z,99496.03
2023-01-29T03:26:04.630Z,99494.53
2023-01-29T03:27:30.534Z,99493.56
2023-01-29T03:28:51.990Z,99493.84
2023-01-29T03:30:14.176Z,99498.19
2023-01-29T03:31:36.953Z,99498.00
2023-01-29T03:32:40.275Z,99502.91
2023-01-29T03:33:51.846Z,99497.66
2023-01-29T03:34:58.932Z,99497.13
2023-01-29T03:36:08.790Z,99498.09
2023-01-29T03:37:23.999Z,99499.66
2023-01-29T03:38:29.604Z,99500.97
2023-01-29T03:39:31.343Z,99493.75
2023-01-29T03:40:53.103Z,99504.09
2023-01-29T03:42:36.478Z,99496.41
2023-01-29T03:43:45.758Z,99508.78
2023-01-29T03:44:53.223Z,99503.31
2023-01-29T03:46:08.476Z,99508.97
2023-01-29T03:47:43.073Z,99500.75
2023-01-29T03:48:47.709Z,99494.84
2023-01-29T03:50:01.014Z,99499.06
2023-01-29T03:51:17.409Z,99504.03
2023-01-29T03:52:34.979Z,99506.16
2023-01-29T03:53:46.285Z,99515.69
2023-01-29T03:55:06.880Z,99509.13
2023-01-29T03:56:28.254Z,99519.00
2023-01-29T03:57:45.696Z,99511.19
2023-01-29T03:59:04.838Z,99515.28
2023-01-29T04:00:18.554Z,99508.31
2023-01-29T04:01:32.996Z,99508.59
2023-01-29T04:02:52.660Z,99502.88
2023-01-29T04:03:59.176Z,99502.41
2023-01-29T04:05:11.992Z,99511.66
2023-01-29T04:06:29.488Z,99514.22
2023-01-29T04:07:34.749Z,99522.69
2023-01-29T04:08:59.046Z,99526.06
2023-01-29T04:10:08.006Z,99524.06
2023-01-29T04:11:14.386Z,99525.38
2023-01-29T04:12:20.397Z,99517.88
2023-01-29T04:13:24.199Z,99522.28
2023-01-29T04:14:25.849Z,99517.81
2023-01-29T04:15:31.548Z,99519.38
2023-01-29T04:16:39.929Z,99515.47
2023-01-29T04:17:51.090Z,99519.91
2023-01-29T04:18:54.337Z,99514.50
2023-01-29T04:19:56.027Z,99512.69
2023-01-29T04:20:58.061Z,99512.16
2023-01-29T04:22:26.243Z,99507.75
2023-01-29T04:23:28.212Z,99502.41
2023-01-29T04:24:30.081Z,99499.50
2023-01-29T04:25:43.367Z,99493.50
2023-01-29T04:26:53.793Z,99495.78
2023-01-29T04:28:10.485Z,99495.75
2023-01-29T04:29:22.185Z,99504.09
2023-01-29T04:30:44.122Z,99512.28
2023-01-29T04:32:21.054Z,99511.78
2023-01-29T04:33:44.775Z,99508.94
2023-01-29T04:34:52.191Z,99504.28
2023-01-29T04:36:25.321Z,99511.56
2023-01-29T04:38:14.971Z,99519.34
2023-01-29T04:39:29.289Z,99521.66
2023-01-29T04:40:48.817Z,99520.38
2023-01-29T04:41:54.636Z,99525.72
2023-01-29T04:43:06.755Z,99519.22
2023-01-29T04:44:18.675Z,99521.38
2023-01-29T04:45:58.042Z,99519.06
2023-01-29T04:47:35.823Z,99513.47
2023-01-29T04:48:50.245Z,99516.25
2023-01-29T04:50:15.663Z,99513.84
2023-01-29T04:51:34.498Z,99509.47
2023-01-29T04:52:52.803Z,99507.94
2023-01-29T04:54:12.392Z,99500.25
2023-01-29T04:55:40.973Z,99505.47
2023-01-29T04:56:53.433Z,99502.44
2023-01-29T04:58:22.562Z,99495.09
2023-01-29T04:59:43.109Z,99500.53
2023-01-29T05:00:47.656Z,99497.19
2023-01-29T05:01:49.718Z,99490.16
2023-01-29T05:02:51.366Z,99493.69
2023-01-29T05:03:55.858Z,99488.25
2023-01-29T05:04:59.569Z,99482.81
2023-01-29T05:06:02.571Z,99478.97
2023-01-29T05:07:10.284Z,99486.72
2023-01-29T05:08:15.801Z,99478.41
2023-01-29T05:09:20.132Z,99486.22
2023-01-29T05:10:24.132Z,99486.28
2023-01-29T05:11:26.361Z,99484.75
2023-01-29T05:12:30.296Z,99479.34
2023-01-29T05:13:34.474Z,99483.50
2023-01-29T05:14:40.384Z,99490.53
2023-01-29T05:15:53.012Z,99489.00
2023-01-29T05:16:57.707Z,99491.00
2023-01-29T05:18:03.123Z,99492.78
2023-01-29T05:19:04.696Z,99494.06
2023-01-29T05:20:07.223Z,99481.66
2023-01-29T05:21:10.089Z,99486.78
2023-01-29T05:22:13.837Z,99474.56
2023-01-29T05:23:20.283Z,99477.22
2023-01-29T05:24:24.400Z,99487.03
2023-01-29T05:25:32.276Z,99477.25
2023-01-29T05:26:53.451Z,99479.34
2023-01-29T05:28:04.091Z,99476.25
2023-01-29T05:29:05.681Z,99470.56
2023-01-29T05:30:07.889Z,99473.63
2023-01-29T05:31:09.679Z,99473.53
2023-01-29T05:32:11.338Z,99471.47
2023-01-29T05:33:39.257Z,99467.59
2023-01-29T05:34:40.838Z,99463.09
2023-01-29T05:35:42.494Z,99464.66
2023-01-29T05:36:44.085Z,99460.78
2023-01-29T05:37:45.775Z,99456.72
2023-01-29T05:38:47.213Z,99455.72
2023-01-29T05:39:48.705Z,99440.72
2023-01-29T05:40:50.195Z,99441.03
2023-01-29T05:41:51.692Z,99436.41
2023-01-29T05:42:53.191Z,99426.56
2023-01-29T05:43:54.724Z,99434.78
2023-01-29T05:44:56.262Z,99435.81
2023-01-29T05:46:00.377Z,99433.22
2023-01-29T05:47:02.780Z,99436.88
2023-01-29T05:48:04.427Z,99434.78
2023-01-29T05:49:06.328Z,99444.31
2023-01-29T05:50:08.898Z,99442.19
2023-01-29T05:51:10.443Z,99441.41
2023-01-29T05:52:12.043Z,99450.25
2023-01-29T05:53:13.544Z,99445.59
2023-01-29T05:54:15.289Z,99444.34
2023-01-29T05:55:16.969Z,99446.16
2023-01-29T05:56:18.507Z,99442.25
2023-01-29T05:57:20.041Z,99449.22
2023-01-29T05:58:21.552Z,99447.94
2023-01-29T05:59:23.449Z,99451.47
2023-01-29T06:00:24.979Z,99446.50
2023-01-29T06:01:26.526Z,99449.56
2023-01-29T06:02:31.608Z,99445.94
2023-01-29T06:03:33.147Z,99449.09
2023-01-29T06:04:34.753Z,99448.63
2023-01-29T06:05:40.066Z,99451.78
2023-01-29T06:06:41.499Z,99458.75
2023-01-29T06:07:45.355Z,99454.88
2023-01-29T06:08:47.264Z,99453.84
2023-01-29T06:09:48.819Z,99465.72
2023-01-29T06:10:50.256Z,99461.59
2023-01-29T06:11:51.746Z,99454.59
2023-01-29T06:12:53.187Z,99454.59
2023-01-29T06:13:55.334Z,99452.84
2023-01-29T06:14:56.819Z,99450.31
2023-01-29T06:15:58.406Z,99454.44
2023-01-29T06:17:00.024Z,99449.28
2023-01-29T06:18:01.459Z,99457.81
2023-01-29T06:19:03.300Z,99451.34
2023-01-29T06:20:05.448Z,99457.75
2023-01-29T06:21:11.040Z,99454.41
2023-01-29T06:22:12.513Z,99454.16
2023-01-29T06:23:13.942Z,99459.91
2023-01-29T06:24:15.618Z,99458.41
2023-01-29T06:25:17.265Z,99466.47
2023-01-29T06:26:18.709Z,99471.38
2023-01-29T06:27:20.221Z,99460.25
2023-01-29T06:28:21.660Z,99461.03
2023-01-29T06:29:23.444Z,99463.88
2023-01-29T06:30:24.904Z,99456.59
2023-01-29T06:31:38.187Z,99460.94
2023-01-29T06:32:40.651Z,99461.72
2023-01-29T06:33:42.168Z,99468.16
2023-01-29T06:34:43.956Z,99471.72
2023-01-29T06:35:45.406Z,99470.94
2023-01-29T06:36:46.886Z,99471.16
2023-01-29T06:37:48.345Z,99469.56
2023-01-29T06:38:50.041Z,99471.53
2023-01-29T06:39:51.980Z,99465.56
2023-01-29T06:40:53.942Z,99468.94
2023-01-29T06:41:55.417Z,99464.06
2023-01-29T06:42:56.859Z,99470.78
2023-01-29T06:43:58.534Z,99471.56
2023-01-29T06:45:00.034Z,99469.06
2023-01-29T06:46:01.657Z,99473.97
2023-01-29T06:47:03.199Z,99458.97
2023-01-29T06:48:04.827Z,99462.09
2023-01-29T06:49:06.259Z,99464.00
2023-01-29T06:50:08.158Z,99473.03
2023-01-29T06:51:10.877Z,99474.78
2023-01-29T06:52:12.370Z,99481.47
2023-01-29T06:53:13.817Z,99475.75
2023-01-29T06:54:15.701Z,99478.03
2023-01-29T06:55:17.143Z,99479.34
2023-01-29T06:56:18.583Z,99474.88
2023-01-29T06:57:20.137Z,99480.13
2023-01-29T06:58:21.638Z,99478.31
2023-01-29T06:59:23.395Z,99478.56
2023-01-29T07:00:24.839Z,99476.00
2023-01-29T07:01:35.667Z,99473.81
2023-01-29T07:02:37.854Z,99475.88
2023-01-29T07:03:39.564Z,99484.88
2023-01-29T07:04:43.022Z,99479.16
2023-01-29T07:05:51.010Z,99483.47
2023-01-29T07:06:52.783Z,99473.28
2023-01-29T07:07:54.336Z,99486.28
2023-01-29T07:08:56.358Z,99491.44
2023-01-29T07:09:57.806Z,99485.16
2023-01-29T07:11:02.860Z,99479.69
2023-01-29T07:12:04.798Z,99483.53
2023-01-29T07:13:06.348Z,99483.59
2023-01-29T07:14:08.340Z,99488.59
2023-01-29T07:15:10.071Z,99483.94
2023-01-29T07:16:11.522Z,99483.97
2023-01-29T07:17:12.954Z,99484.75
2023-01-29T07:18:14.447Z,99481.66
2023-01-29T07:19:15.986Z,99478.81
2023-01-29T07:20:17.837Z,99482.94
2023-01-29T07:21:19.469Z,99485.84
2023-01-29T07:22:20.918Z,99485.00
2023-01-29T07:23:23.315Z,99485.00
2023-01-29T07:24:25.260Z,99484.50
2023-01-29T07:25:26.711Z,99482.47
2023-01-29T07:26:28.188Z,99482.78
2023-01-29T07:27:29.608Z,99484.88
2023-01-29T07:28:31.469Z,99476.78
2023-01-29T07:29:33.232Z,99474.75
2023-01-29T07:30:35.484Z,99477.13
2023-01-29T07:31:37.001Z,99481.19
2023-01-29T07:32:38.464Z,99480.38
2023-01-29T07:33:40.359Z,99480.59
2023-01-29T07:34:41.826Z,99478.41
2023-01-29T07:35:43.665Z,99477.13
2023-01-29T07:36:45.183Z,99475.63
2023-01-29T07:37:50.180Z,99487.03
2023-01-29T07:38:51.894Z,99486.94
2023-01-29T07:39:53.341Z,99483.72
2023-01-29T07:40:54.841Z,99489.88
2023-01-29T07:41:56.345Z,99487.44
2023-01-29T07:43:01.484Z,99495.25
2023-01-29T07:44:02.952Z,99488.72
2023-01-29T07:45:06.227Z,99490.75
2023-01-29T07:46:07.965Z,99496.72
2023-01-29T07:47:09.466Z,99491.41
2023-01-29T07:48:13.123Z,99491.97
2023-01-29T07:49:15.344Z,99494.34
2023-01-29T07:50:17.116Z,99497.81
2023-01-29T07:51:18.705Z,99503.09
2023-01-29T07:52:22.208Z,99503.56
2023-01-29T07:53:24.635Z,99498.56
2023-01-29T07:54:26.149Z,99503.75
2023-01-29T07:55:27.871Z,99510.94
2023-01-29T07:56:29.523Z,99513.19
2023-01-29T07:57:31.032Z,99510.38
2023-01-29T07:58:34.440Z,99511.41
2023-01-29T07:59:37.161Z,99504.13
2023-01-29T08:00:38.912Z,99514.69
2023-01-29T08:01:40.367Z,99522.25
2023-01-29T08:02:41.884Z,99524.78
2023-01-29T08:03:43.681Z,99522.94
2023-01-29T08:04:45.181Z,99524.44
2023-01-29T08:05:47.085Z,99524.94
2023-01-29T08:06:48.588Z,99526.75
2023-01-29T08:08:05.697Z,99529.50
2023-01-29T08:09:09.180Z,99530.09
2023-01-29T08:10:11.282Z,99521.59
2023-01-29T08:11:12.860Z,99520.03
2023-01-29T08:12:14.436Z,99514.28
2023-01-29T08:13:16.281Z,99515.56
2023-01-29T08:14:17.756Z,99510.81
2023-01-29T08:15:19.169Z,99515.00
2023-01-29T08:16:20.744Z,99508.78
2023-01-29T08:17:22.233Z,99505.94
2023-01-29T08:18:24.007Z,99503.16
2023-01-29T08:19:25.416Z,99501.72
2023-01-29T08:20:26.823Z,99503.94
2023-01-29T08:21:28.535Z,99512.34
2023-01-29T08:22:29.949Z,99507.22
2023-01-29T08:23:31.407Z,99509.81
2023-01-29T08:24:47.441Z,99511.31
2023-01-29T08:25:54.642Z,99508.44
2023-01-29T08:26:56.241Z,99514.94
2023-01-29T08:27:59.175Z,99511.84
2023-01-29T08:29:00.744Z,99516.59
2023-01-29T08:30:02.370Z,99509.63
2023-01-29T08:31:03.930Z,99519.19
2023-01-29T08:32:05.678Z,99521.50
2023-01-29T08:33:07.492Z,99515.66
2023-01-29T08:34:08.962Z,99510.63
2023-01-29T08:35:10.509Z,99512.59
2023-01-29T08:36:12.327Z,99508.03
2023-01-29T08:37:13.839Z,99519.44
2023-01-29T08:38:15.605Z,99518.94
2023-01-29T08:39:17.146Z,99522.22
2023-01-29T08:40:18.853Z,99519.81
2023-01-29T08:41:20.464Z,99518.81
2023-01-29T08:42:21.930Z,99526.03
2023-01-29T08:43:23.692Z,99528.34
2023-01-29T08:44:25.186Z,99536.31
2023-01-29T08:45:26.798Z,99531.69
2023-01-29T08:46:28.461Z,99529.88
2023-01-29T08:47:30.102Z,99531.91
2023-01-29T08:48:32.004Z,99530.91
2023-01-29T08:49:33.493Z,99530.66
2023-01-29T08:50:36.069Z,99517.06
2023-01-29T08:51:37.565Z,99519.97
2023-01-29T08:52:39.092Z,99521.59
2023-01-29T08:53:40.649Z,99522.63
2023-01-29T08:54:42.208Z,99517.09
2023-01-29T08:55:46.123Z,99530.53
2023-01-29T08:56:47.649Z,99530.84
2023-01-29T08:57:49.151Z,99523.25
2023-01-29T08:58:50.643Z,99538.75
2023-01-29T08:59:52.143Z,99534.09
2023-01-29T09:00:53.593Z,99527.50
2023-01-29T09:01:55.147Z,99523.91
2023-01-29T09:02:56.670Z,99528.84
2023-01-29T09:03:58.157Z,99532.91
2023-01-29T09:04:59.648Z,99538.28
2023-01-29T09:06:01.138Z,99537.41
2023-01-29T09:07:02.630Z,99542.34
2023-01-29T09:08:05.219Z,99543.00
2023-01-29T09:09:06.657Z,99539.97
2023-01-29T09:10:08.944Z,99541.44
2023-01-29T09:11:11.231Z,99542.19
2023-01-29T09:12:12.769Z,99541.47
2023-01-29T09:13:14.598Z,99542.25
2023-01-29T09:14:16.279Z,99540.19
2023-01-29T09:15:18.122Z,99539.94
2023-01-29T09:16:19.937Z,99539.66
2023-01-29T09:17:21.451Z,99538.66
2023-01-29T09:18:23.324Z,99535.09
2023-01-29T09:19:25.252Z,99547.31
2023-01-29T09:20:26.987Z,99528.84
2023-01-29T09:21:28.783Z,99530.69
2023-01-29T09:22:30.393Z,99537.00
2023-01-29T09:23:32.139Z,99534.09
2023-01-29T09:24:35.055Z,99526.03
2023-01-29T09:25:37.571Z,99521.03
2023-01-29T09:26:40.201Z,99513.13
2023-01-29T09:27:41.866Z,99523.22
2023-01-29T09:28:43.408Z,99522.84
2023-01-29T09:29:44.846Z,99518.69
2023-01-29T09:30:47.123Z,99521.06
2023-01-29T09:31:48.868Z,99519.00
2023-01-29T09:32:54.690Z,99516.63
2023-01-29T09:33:56.477Z,99515.53
2023-01-29T09:34:58.007Z,99514.53
2023-01-29T09:35:59.603Z,99516.81
2023-01-29T09:37:01.406Z,99513.56
2023-01-29T09:38:03.400Z,99509.19
2023-01-29T09:39:04.908Z,99508.13
2023-01-29T09:40:07.375Z,99504.63
2023-01-29T09:41:39.219Z,99500.25
2023-01-29T09:42:49.250Z,99501.59
2023-01-29T09:44:00.846Z,99500.47
2023-01-29T09:45:14.280Z,99500.50
2023-01-29T09:46:25.717Z,99500.50
2023-01-29T09:47:28.605Z,99495.56
2023-01-29T09:48:41.688Z,99490.69
2023-01-29T09:49:52.569Z,99483.28
2023-01-29T09:50:57.961Z,99487.16
2023-01-29T09:52:05.875Z,99482.69
2023-01-29T09:53:35.664Z,99486.25
2023-01-29T09:54:50.701Z,99488.09
2023-01-29T09:56:06.183Z,99482.69
2023-01-29T09:57:14.728Z,99486.91
2023-01-29T09:58:35.561Z,99481.19
2023-01-29T09:59:37.120Z,99482.22
2023-01-29T10:00:44.238Z,99479.31
2023-01-29T10:02:11.242Z,99470.88
2023-01-29T10:03:22.069Z,99481.50
2023-01-29T10:04:23.632Z,99489.03
2023-01-29T10:05:50.316Z,99484.69
2023-01-29T10:07:20.506Z,99487.88
2023-01-29T10:08:46.433Z,99484.69
2023-01-29T10:10:02.562Z,99493.81
2023-01-29T10:11:11.886Z,99503.91
2023-01-29T10:12:24.657Z,99513.78
2023-01-29T10:13:52.369Z,99515.19
2023-01-29T10:15:06.000Z,99508.91
2023-01-29T10:16:31.914Z,99517.22
2023-01-29T10:18:18.491Z,99517.41
2023-01-29T10:19:47.781Z,99510.34
2023-01-29T10:21:26.952Z,99498.59
2023-01-29T10:22:37.495Z,99498.63
2023-01-29T10:23:53.463Z,99498.16
2023-01-29T10:25:02.664Z,99498.47
2023-01-29T10:26:04.526Z,99507.50
2023-01-29T10:27:17.764Z,99510.09
2023-01-29T10:28:43.598Z,99510.84
2023-01-29T10:29:47.566Z,99516.31
2023-01-29T10:30:51.524Z,99517.34
2023-01-29T10:31:59.487Z,99523.78
2023-01-29T10:33:15.226Z,99524.03
2023-01-29T10:34:31.618Z,99528.97
2023-01-29T10:35:43.605Z,99529.75
2023-01-29T10:36:48.011Z,99524.03
2023-01-29T10:37:52.941Z,99534.63
2023-01-29T10:38:56.046Z,99530.19
2023-01-29T10:39:59.959Z,99526.09
2023-01-29T10:41:12.950Z,99528.94
2023-01-29T10:42:26.501Z,99518.59
2023-01-29T10:43:43.657Z,99513.69
2023-01-29T10:45:06.320Z,99515.50
2023-01-29T10:46:23.634Z,99507.72
2023-01-29T10:47:44.930Z,99511.56
2023-01-29T10:49:08.302Z,99505.94
2023-01-29T10:50:21.891Z,99505.16
2023-01-29T10:52:00.691Z,99501.03
2023-01-29T10:53:23.781Z,99492.81
2023-01-29T10:54:49.980Z,99496.22
2023-01-29T10:56:13.947Z,99487.44
2023-01-29T10:57:50.246Z,99491.81
2023-01-29T10:58:56.815Z,99487.44
2023-01-29T11:00:12.544Z,99478.44
2023-01-29T11:01:14.414Z,99474.31
2023-01-29T11:02:21.227Z,99469.06
2023-01-29T11:03:29.361Z,99466.22
2023-01-29T11:04:31.930Z,99466.47
2023-01-29T11:05:41.104Z,99463.09
2023-01-29T11:06:43.404Z,99461.56
2023-01-29T11:07:45.421Z,99467.50
2023-01-29T11:08:54.517Z,99462.03
2023-01-29T11:10:08.396Z,99463.81
2023-01-29T11:11:15.600Z,99466.69
2023-01-29T11:12:22.745Z,99453.72
2023-01-29T11:13:32.701Z,99457.38
2023-01-29T11:14:46.230Z,99448.75
2023-01-29T11:15:52.707Z,99451.16
2023-01-29T11:16:54.770Z,99454.25
2023-01-29T11:18:15.505Z,99439.56
2023-01-29T11:19:17.530Z,99439.00
2023-01-29T11:20:29.496Z,99432.53
2023-01-29T11:21:30.965Z,99430.16
2023-01-29T11:22:35.214Z,99427.81
2023-01-29T11:23:37.022Z,99423.41
2023-01-29T11:24:38.569Z,99422.88
2023-01-29T11:25:40.142Z,99413.28
2023-01-29T11:26:42.929Z,99413.78
2023-01-29T11:27:45.862Z,99416.38
2023-01-29T11:28:50.370Z,99411.94
2023-01-29T11:29:56.045Z,99414.06
2023-01-29T11:30:57.821Z,99413.00
2023-01-29T11:32:00.780Z,99410.91
2023-01-29T11:33:23.992Z,99404.44
2023-01-29T11:34:27.780Z,99404.13
2023-01-29T11:35:30.649Z,99403.34
2023-01-29T11:36:35.189Z,99394.84
2023-01-29T11:37:38.826Z,99394.84
2023-01-29T11:38:40.338Z,99389.66
2023-01-29T11:39:49.370Z,99391.72
2023-01-29T11:40:51.848Z,99387.84
2023-01-29T11:42:02.831Z,99391.47
2023-01-29T11:43:30.934Z,99393.34
2023-01-29T11:44:41.904Z,99394.09
2023-01-29T11:45:43.983Z,99396.41
2023-01-29T11:46:45.883Z,99393.03
2023-01-29T11:47:53.991Z,99394.38
2023-01-29T11:48:59.239Z,99394.13
2023-01-29T11:50:04.797Z,99389.69
2023-01-29T11:51:07.047Z,99384.25
2023-01-29T11:52:10.232Z,99387.66
2023-01-29T11:53:37.362Z,99380.63
2023-01-29T11:54:46.862Z,99378.03
2023-01-29T11:55:50.937Z,99376.22
2023-01-29T11:56:52.830Z,99376.72
2023-01-29T11:58:11.529Z,99372.56
2023-01-29T11:59:49.194Z,99356.75
2023-01-29T12:00:52.092Z,99350.03
2023-01-29T12:01:54.623Z,99350.28
2023-01-29T12:03:25.004Z,99355.72
2023-01-29T12:04:30.684Z,99349.25
2023-01-29T12:05:32.429Z,99356.78
2023-01-29T12:06:36.588Z,99347.19
2023-01-29T12:07:42.815Z,99352.63
2023-01-29T12:08:44.439Z,99361.97
2023-01-29T12:09:55.081Z,99355.22
2023-01-29T12:11:09.073Z,99363.00
2023-01-29T12:12:37.369Z,99357.84
2023-01-29T12:13:40.637Z,99346.19
2023-01-29T12:14:43.994Z,99345.66
2023-01-29T12:15:46.315Z,99344.63
2023-01-29T12:16:59.842Z,99338.38
2023-01-29T12:18:04.126Z,99342.03
2023-01-29T12:19:13.896Z,99338.13
2023-01-29T12:20:22.640Z,99334.75
2023-01-29T12:21:43.436Z,99337.63
2023-01-29T12:22:57.207Z,99335.25
2023-01-29T12:24:42.976Z,99337.84
2023-01-29T12:26:00.496Z,99338.41
2023-01-29T12:27:14.671Z,99344.34
2023-01-29T12:28:22.967Z,99340.47
2023-01-29T12:29:37.411Z,99333.47
2023-01-29T12:30:51.281Z,99328.53
2023-01-29T12:32:32.604Z,99326.47
2023-01-29T12:33:46.522Z,99327.75
2023-01-29T12:34:57.384Z,99314.78
2023-01-29T12:36:05.376Z,99316.88
2023-01-29T12:37:22.169Z,99314.50
2023-01-29T12:38:24.246Z,99309.84
2023-01-29T12:39:26.385Z,99312.97
2023-01-29T12:40:40.366Z,99310.13
2023-01-29T12:41:47.876Z,99312.97
2023-01-29T12:42:53.346Z,99300.25
2023-01-29T12:44:18.995Z,99301.53
2023-01-29T12:45:23.958Z,99302.31
2023-01-29T12:46:29.111Z,99308.81
2023-01-29T12:47:36.297Z,99301.53
2023-01-29T12:48:41.534Z,99302.03
2023-01-29T12:49:48.294Z,99297.41
2023-01-29T12:50:53.185Z,99301.81
2023-01-29T12:51:59.103Z,99303.09
2023-01-29T12:53:15.666Z,99295.31
2023-01-29T12:54:29.197Z,99297.41
2023-01-29T12:55:40.431Z,99282.09
2023-01-29T12:56:48.620Z,99280.78
2023-01-29T12:57:56.711Z,99283.66
2023-01-29T12:59:02.574Z,99284.41
2023-01-29T13:00:15.418Z,99289.84
2023-01-29T13:01:27.442Z,99286.47
2023-01-29T13:02:37.867Z,99294.00
2023-01-29T13:03:53.613Z,99301.53
2023-01-29T13:05:01.089Z,99291.91
2023-01-29T13:06:10.247Z,99285.69
2023-01-29T13:07:19.421Z,99285.38
2023-01-29T13:08:29.276Z,99284.06
2023-01-29T13:09:33.971Z,99281.47
2023-01-29T13:10:41.557Z,99287.72
2023-01-29T13:11:51.599Z,99284.09
2023-01-29T13:13:03.806Z,99286.41
2023-01-29T13:14:22.819Z,99287.22
2023-01-29T13:15:35.149Z,99274.78
2023-01-29T13:16:43.770Z,99281.25
2023-01-29T13:17:55.210Z,99277.66
2023-01-29T13:19:05.126Z,99280.50